Time;durP1;ratioP1;P1;durP2;ratioP2;P2;SDS_P1;SDS_P2;PMS_P1;PMS_P2;Temp;Humidity;BMP_temperature;BMP_pressure;BME280_temperature;BME280_humidity;BME280_pressure;Samples;Min_cycle;Max_cycle;Signal;HPM_P1;HPM_P2
2022/11/09 00:00:37;;;;;;;2.20;1.77;;;;;;;12.03;55.54;95372.91;5030634;28;20222;-84
2022/11/09 00:03:05;;;;;;;2.03;1.87;;;;;;;12.01;56.05;95374.88;5030690;28;20190;-84
2022/11/09 00:05:32;;;;;;;2.20;2.00;;;;;;;11.99;56.11;95386.34;5033558;28;20198;-85
2022/11/09 00:07:58;;;;;;;2.20;1.83;;;;;;;11.90;57.38;95382.34;5033953;28;20285;-84
2022/11/09 00:10:24;;;;;;;2.47;2.20;;;;;;;11.83;57.11;95381.50;5033668;28;20214;-85
2022/11/09 00:12:51;;;;;;;2.70;2.50;;;;;;;11.81;57.21;95384.25;5034300;28;20202;-84
2022/11/09 00:15:17;;;;;;;2.80;2.50;;;;;;;11.82;56.99;95387.66;5034617;28;20195;-84
2022/11/09 00:17:44;;;;;;;2.07;1.87;;;;;;;11.81;55.83;95389.44;5033477;28;20210;-83
2022/11/09 00:20:12;;;;;;;1.93;1.77;;;;;;;11.87;55.34;95380.16;5033175;28;20217;-85
2022/11/09 00:22:39;;;;;;;2.50;2.07;;;;;;;11.88;55.93;95379.16;5034907;28;20368;-84
2022/11/09 00:25:07;;;;;;;2.30;2.00;;;;;;;11.86;56.61;95370.81;5033787;28;20194;-84
2022/11/09 00:27:33;;;;;;;1.67;1.57;;;;;;;11.87;55.57;95378.38;5032490;28;20199;-83
2022/11/09 00:30:00;;;;;;;2.03;1.70;;;;;;;11.84;55.27;95370.19;5032272;28;20221;-83
2022/11/09 00:32:26;;;;;;;2.63;1.60;;;;;;;11.82;54.65;95367.81;5032914;28;20297;-84
2022/11/09 00:34:52;;;;;;;1.70;1.60;;;;;;;11.78;54.65;95374.31;5032926;28;20191;-83
2022/11/09 00:37:20;;;;;;;3.33;1.60;;;;;;;11.81;55.07;95373.16;5032301;28;20218;-83
2022/11/09 00:39:47;;;;;;;3.37;1.77;;;;;;;11.77;54.91;95373.53;5032504;28;20214;-82
2022/11/09 00:42:13;;;;;;;2.00;1.80;;;;;;;11.78;55.38;95374.31;5032991;28;20194;-84
2022/11/09 00:44:40;;;;;;;1.83;1.50;;;;;;;11.75;54.86;95370.31;5033086;28;20205;-83
2022/11/09 00:47:06;;;;;;;2.13;1.93;;;;;;;11.71;55.41;95369.09;5033443;28;20196;-82
2022/11/09 00:49:33;;;;;;;2.10;1.80;;;;;;;11.71;55.65;95360.56;5031859;28;20218;-85
2022/11/09 00:51:59;;;;;;;2.40;1.90;;;;;;;11.68;55.64;95363.53;5032991;28;20198;-85
2022/11/09 00:54:27;;;;;;;2.17;1.73;;;;;;;11.66;55.50;95366.28;5032231;28;20194;-83
2022/11/09 00:56:54;;;;;;;1.63;1.53;;;;;;;11.64;55.14;95359.72;5031994;28;20218;-85
2022/11/09 00:59:21;;;;;;;2.00;1.80;;;;;;;11.66;55.07;95357.75;5032481;28;20217;-83
2022/11/09 01:01:47;;;;;;;2.37;2.17;;;;;;;11.67;55.35;95367.09;5032812;28;20195;-83
2022/11/09 01:04:14;;;;;;;2.87;2.10;;;;;;;11.69;55.11;95363.34;5032619;28;20198;-83
2022/11/09 01:06:40;;;;;;;2.30;1.90;;;;;;;11.70;55.79;95364.13;5031741;28;20594;-84
2022/11/09 01:09:07;;;;;;;2.20;1.90;;;;;;;11.69;55.47;95370.28;5032114;28;20240;-84
2022/11/09 01:11:35;;;;;;;1.83;1.70;;;;;;;11.71;55.30;95370.88;5032419;28;20198;-83
2022/11/09 01:14:01;;;;;;;2.00;1.70;;;;;;;11.69;55.33;95368.50;5025966;28;20191;-83
2022/11/09 01:16:28;;;;;;;2.97;1.30;;;;;;;11.69;54.22;95367.69;5031927;28;20198;-83
2022/11/09 01:18:55;;;;;;;1.53;1.43;;;;;;;11.65;54.88;95364.69;5031982;28;20789;-83
2022/11/09 01:21:22;;;;;;;1.43;1.33;;;;;;;11.65;54.73;95369.06;5032502;28;20198;-83
2022/11/09 01:23:48;;;;;;;1.50;1.40;;;;;;;11.67;54.70;95362.72;5032002;28;20198;-83
2022/11/09 01:26:15;;;;;;;1.60;1.30;;;;;;;11.65;54.98;95367.28;5032706;28;20205;-83
2022/11/09 01:28:43;;;;;;;1.40;1.30;;;;;;;11.62;54.24;95370.22;5030817;28;20201;-84
2022/11/09 01:31:12;;;;;;;1.37;1.23;;;;;;;11.58;54.01;95365.63;5033022;28;20206;-85
2022/11/09 01:33:39;;;;;;;1.37;1.27;;;;;;;11.57;53.47;95353.72;5032463;28;20862;-84
2022/11/09 01:36:08;;;;;;;1.50;1.40;;;;;;;11.59;53.82;95352.53;5031823;28;20684;-85
2022/11/09 01:38:35;;;;;;;1.40;1.30;;;;;;;11.56;53.93;95354.69;5031294;28;20218;-85
2022/11/09 01:41:02;;;;;;;1.63;1.23;;;;;;;11.54;53.44;95357.50;5025480;28;20719;-84
2022/11/09 01:43:29;;;;;;;1.37;1.27;;;;;;;11.59;53.25;95351.75;5031869;28;20257;-83
2022/11/09 01:46:02;;;;;;;1.03;1.03;;;;;;;11.52;53.52;95351.72;5031570;28;20194;-85
2022/11/09 01:48:36;;;;;;;1.30;1.20;;;;;;;11.59;53.54;95365.44;5031166;28;20205;-84
2022/11/09 01:51:07;;;;;;;1.17;1.07;;;;;;;11.64;53.39;95359.72;5025470;28;20228;-84
2022/11/09 01:53:39;;;;;;;2.13;1.30;;;;;;;11.62;54.00;95359.13;5033266;28;20206;-83
2022/11/09 01:56:09;;;;;;;1.27;1.10;;;;;;;11.54;54.45;95360.06;5030486;28;20182;-84
2022/11/09 01:58:41;;;;;;;1.87;1.10;;;;;;;11.51;55.08;95360.44;5034531;28;20214;-83
2022/11/09 02:01:10;;;;;;;1.40;1.20;;;;;;;11.45;54.63;95360.38;5030405;28;20221;-83
2022/11/09 02:03:42;;;;;;;1.33;1.23;;;;;;;11.42;55.11;95359.75;5035568;28;20285;-84
2022/11/09 02:06:14;;;;;;;1.53;1.30;;;;;;;11.42;54.47;95353.81;5030731;28;20194;-84
2022/11/09 02:08:41;;;;;;;1.20;1.10;;;;;;;11.38;54.64;95352.59;5034979;28;20198;-83
2022/11/09 02:11:09;;;;;;;2.83;1.30;;;;;;;11.40;54.61;95354.00;5036145;28;20218;-84
2022/11/09 02:13:38;;;;;;;2.17;1.30;;;;;;;11.39;54.99;95343.88;5036537;28;20206;-85
2022/11/09 02:16:06;;;;;;;1.33;1.23;;;;;;;11.41;54.42;95347.06;5030286;28;20196;-84
2022/11/09 02:18:34;;;;;;;1.40;1.30;;;;;;;11.40;54.37;95356.56;5035326;28;20225;-84
2022/11/09 02:21:02;;;;;;;1.40;1.30;;;;;;;11.40;54.11;95355.78;5035466;28;20229;-83
2022/11/09 02:23:29;;;;;;;2.77;1.40;;;;;;;11.35;54.48;95355.56;5034618;28;20199;-85
2022/11/09 02:25:59;;;;;;;1.00;1.00;;;;;;;11.34;54.94;95346.22;5033557;28;20214;-83
2022/11/09 02:28:27;;;;;;;1.00;1.00;;;;;;;11.30;53.91;95347.59;5034363;28;20186;-82
2022/11/09 02:30:56;;;;;;;1.83;1.20;;;;;;;11.29;54.46;95357.09;5034311;28;20222;-83
2022/11/09 02:33:23;;;;;;;1.30;1.20;;;;;;;11.29;54.28;95341.63;5035234;28;20210;-84
2022/11/09 02:35:49;;;;;;;1.57;1.10;;;;;;;11.30;54.16;95342.44;5034547;28;20198;-84
2022/11/09 02:38:17;;;;;;;1.23;1.00;;;;;;;11.31;53.75;95344.03;5034985;28;20210;-83
2022/11/09 02:40:48;;;;;;;2.70;1.00;;;;;;;11.33;53.33;95344.63;5034201;28;20218;-83
2022/11/09 02:43:15;;;;;;;1.33;1.10;;;;;;;11.35;53.08;95342.69;5034385;28;20194;-83
2022/11/09 02:45:41;;;;;;;1.07;0.97;;;;;;;11.38;53.74;95350.00;5034455;28;20197;-84
2022/11/09 02:48:08;;;;;;;1.13;0.97;;;;;;;11.36;53.17;95350.19;5033824;28;20205;-83
2022/11/09 02:50:35;;;;;;;1.13;0.93;;;;;;;11.35;52.82;95346.03;5031813;28;20221;-84
2022/11/09 02:53:02;;;;;;;0.90;0.90;;;;;;;11.38;53.13;95344.84;5034823;28;20245;-82
2022/11/09 02:55:30;;;;;;;1.00;0.90;;;;;;;11.36;52.22;95341.66;5035189;28;20202;-86
2022/11/09 02:57:56;;;;;;;1.30;1.20;;;;;;;11.37;53.01;95346.63;5034610;28;20681;-84
2022/11/09 03:00:23;;;;;;;0.90;0.90;;;;;;;11.36;52.29;95345.03;5034763;28;20217;-84
2022/11/09 03:02:49;;;;;;;0.97;0.90;;;;;;;11.36;52.33;95346.81;5034199;28;20194;-83
2022/11/09 03:05:16;;;;;;;1.10;1.00;;;;;;;11.33;52.36;95348.00;5033992;28;20209;-84
2022/11/09 03:07:43;;;;;;;0.90;0.90;;;;;;;11.34;51.76;95349.59;5034152;28;20197;-84
2022/11/09 03:10:09;;;;;;;1.10;1.00;;;;;;;11.37;52.12;95345.84;5037283;28;20225;-84
2022/11/09 03:12:37;;;;;;;1.20;1.10;;;;;;;11.41;52.53;95340.13;5038477;28;20198;-86
2022/11/09 03:15:06;;;;;;;1.27;1.07;;;;;;;11.42;51.88;95331.41;5035460;28;20194;-85
2022/11/09 03:17:33;;;;;;;1.30;0.97;;;;;;;11.47;52.17;95335.22;5034749;28;20229;-85
2022/11/09 03:20:00;;;;;;;1.20;1.10;;;;;;;11.50;52.19;95335.63;5034440;28;20217;-84
2022/11/09 03:22:27;;;;;;;1.30;1.03;;;;;;;11.47;52.20;95345.53;5034783;28;20198;-84
2022/11/09 03:24:54;;;;;;;1.03;0.93;;;;;;;11.45;52.51;95343.13;5033873;28;20256;-84
2022/11/09 03:27:20;;;;;;;1.47;1.03;;;;;;;11.49;52.76;95346.13;5034976;28;20407;-84
2022/11/09 03:29:48;;;;;;;0.90;0.90;;;;;;;11.49;52.33;95341.78;5032850;28;20222;-82
2022/11/09 03:32:15;;;;;;;1.10;1.00;;;;;;;11.48;52.37;95339.38;5032179;28;20187;-84
2022/11/09 03:34:41;;;;;;;1.40;0.90;;;;;;;11.47;52.20;95337.78;5035393;28;20546;-84
2022/11/09 03:37:08;;;;;;;1.00;0.90;;;;;;;11.48;51.90;95347.91;5028008;28;20197;-85
2022/11/09 03:39:34;;;;;;;1.20;1.10;;;;;;;11.48;52.00;95347.13;5034573;28;20218;-83
2022/11/09 03:42:00;;;;;;;1.27;1.17;;;;;;;11.49;51.71;95343.56;5034560;28;20269;-85
2022/11/09 03:44:27;;;;;;;0.83;0.83;;;;;;;11.50;51.72;95342.56;5032136;28;20207;-84
2022/11/09 03:46:55;;;;;;;1.10;1.00;;;;;;;11.49;51.56;95334.03;5033810;28;20209;-83
2022/11/09 03:49:23;;;;;;;1.60;1.17;;;;;;;11.52;52.05;95340.59;5034489;28;20301;-85
2022/11/09 03:51:50;;;;;;;1.10;1.00;;;;;;;11.48;52.57;95327.28;5034900;28;20202;-84
2022/11/09 03:54:16;;;;;;;1.30;1.20;;;;;;;11.51;52.10;95333.84;5033427;28;20260;-85
2022/11/09 03:56:43;;;;;;;2.00;1.07;;;;;;;11.52;51.89;95331.09;5033873;28;20206;-83
2022/11/09 03:59:09;;;;;;;1.00;0.93;;;;;;;11.52;51.46;95336.25;5033037;28;20214;-83
2022/11/09 04:01:36;;;;;;;1.00;0.90;;;;;;;11.50;51.23;95332.25;5033746;28;20198;-84
2022/11/09 04:04:04;;;;;;;1.23;1.00;;;;;;;11.49;51.30;95333.25;5034420;28;20206;-83
2022/11/09 04:06:30;;;;;;;1.23;0.90;;;;;;;11.48;51.09;95329.06;5037717;28;20217;-84
2022/11/09 04:08:57;;;;;;;0.90;0.90;;;;;;;11.45;50.99;95327.66;5033361;28;20190;-85
2022/11/09 04:11:24;;;;;;;0.97;0.80;;;;;;;11.49;50.72;95323.72;5034364;28;20199;-83
2022/11/09 04:13:50;;;;;;;0.80;0.80;;;;;;;11.55;50.53;95332.47;5033700;28;20198;-82
2022/11/09 04:16:17;;;;;;;1.10;1.00;;;;;;;11.53;50.26;95329.31;5033343;28;20201;-83
2022/11/09 04:18:43;;;;;;;0.80;0.80;;;;;;;11.53;50.50;95327.53;5033632;28;20685;-83
2022/11/09 04:21:11;;;;;;;1.10;1.00;;;;;;;11.57;50.43;95325.34;5033668;28;20630;-84
2022/11/09 04:23:37;;;;;;;0.90;0.90;;;;;;;11.61;50.59;95327.38;5033285;28;20209;-84
2022/11/09 04:26:04;;;;;;;1.07;0.90;;;;;;;11.62;50.64;95320.44;5033420;28;20194;-83
2022/11/09 04:28:30;;;;;;;1.10;0.90;;;;;;;11.65;50.86;95327.78;5032226;28;20202;-84
2022/11/09 04:31:00;;;;;;;0.90;0.90;;;;;;;11.55;50.07;95333.28;5032339;28;20221;-85
2022/11/09 04:33:26;;;;;;;1.37;1.20;;;;;;;11.52;50.18;95332.88;5033889;28;20209;-84
2022/11/09 04:35:53;;;;;;;2.17;1.20;;;;;;;11.55;50.77;95332.47;5032974;28;20208;-83
2022/11/09 04:38:21;;;;;;;3.20;1.00;;;;;;;11.56;50.84;95334.88;5032854;28;20218;-84
2022/11/09 04:40:47;;;;;;;1.03;0.97;;;;;;;11.61;50.41;95329.94;5033168;28;20237;-85
2022/11/09 04:43:14;;;;;;;1.07;1.00;;;;;;;11.53;50.11;95339.63;5031635;28;20213;-84
2022/11/09 04:45:41;;;;;;;1.10;1.00;;;;;;;11.56;50.18;95332.28;5032396;28;20198;-83
2022/11/09 04:48:09;;;;;;;1.20;1.10;;;;;;;11.64;50.16;95324.41;5032487;28;20191;-84
2022/11/09 04:50:36;;;;;;;1.03;1.00;;;;;;;11.65;49.86;95328.59;5032571;28;20225;-84
2022/11/09 04:53:07;;;;;;;1.33;1.00;;;;;;;11.64;49.56;95331.34;5032957;28;20220;-83
2022/11/09 04:55:35;;;;;;;1.07;0.97;;;;;;;11.67;49.75;95331.78;5033377;28;20220;-84
2022/11/09 04:58:02;;;;;;;0.97;0.90;;;;;;;11.63;49.47;95343.44;5032496;28;20214;-83
2022/11/09 05:00:28;;;;;;;1.20;1.00;;;;;;;11.69;49.68;95339.34;5033383;28;20305;-84
2022/11/09 05:02:55;;;;;;;0.87;0.87;;;;;;;11.68;49.36;95341.13;5035458;28;20210;-84
2022/11/09 05:05:21;;;;;;;2.20;1.10;;;;;;;11.67;49.62;95334.38;5034470;28;20194;-85
2022/11/09 05:07:48;;;;;;;1.20;0.90;;;;;;;11.71;49.67;95338.16;5032897;28;20206;-85
2022/11/09 05:10:15;;;;;;;1.70;0.93;;;;;;;11.72;49.52;95338.97;5032797;28;20217;-83
2022/11/09 05:12:43;;;;;;;1.10;1.00;;;;;;;11.75;50.11;95333.41;5032450;28;20206;-83
2022/11/09 05:15:10;;;;;;;1.17;1.07;;;;;;;11.78;50.19;95340.78;5032522;28;20198;-84
2022/11/09 05:17:36;;;;;;;1.00;0.90;;;;;;;11.79;49.72;95333.84;5025410;28;20195;-84
2022/11/09 05:20:03;;;;;;;1.33;1.23;;;;;;;11.79;49.89;95344.97;5024874;28;20214;-85
2022/11/09 05:25:14;;;;;;;1.30;1.20;;;;;;;11.77;50.01;95341.78;5032510;28;20284;-83
2022/11/09 05:27:40;;;;;;;1.37;1.10;;;;;;;11.75;50.26;95346.28;5031923;28;20198;-84
2022/11/09 05:30:09;;;;;;;2.23;1.23;;;;;;;11.76;49.99;95343.56;5031573;28;20210;-85
2022/11/09 05:32:38;;;;;;;1.10;1.00;;;;;;;11.70;50.31;95339.16;5033285;28;20557;-84
2022/11/09 05:35:05;;;;;;;1.33;1.20;;;;;;;11.71;50.27;95337.38;5025221;28;20198;-84
2022/11/09 05:37:31;;;;;;;1.43;1.10;;;;;;;11.65;49.98;95333.75;5032170;28;20209;-85
2022/11/09 05:39:58;;;;;;;1.87;1.17;;;;;;;11.66;50.24;95332.75;5031930;28;20230;-85
2022/11/09 05:42:25;;;;;;;1.03;1.00;;;;;;;11.63;50.52;95338.28;5028735;28;20213;-84
2022/11/09 05:44:51;;;;;;;1.07;1.00;;;;;;;11.65;50.09;95331.16;5026784;28;20294;-83
2022/11/09 05:47:19;;;;;;;1.10;1.00;;;;;;;11.60;50.17;95336.09;5025936;28;20202;-85
2022/11/09 05:49:45;;;;;;;1.57;1.17;;;;;;;11.60;50.29;95340.44;5021778;28;20425;-84
2022/11/09 05:52:12;;;;;;;1.10;1.00;;;;;;;11.64;50.22;95345.06;5031974;28;20432;-84
2022/11/09 05:54:39;;;;;;;1.17;1.03;;;;;;;11.67;50.03;95341.31;5031947;28;20190;-84
2022/11/09 05:57:05;;;;;;;1.17;1.07;;;;;;;11.69;50.19;95350.44;5029051;28;20198;-83
2022/11/09 05:59:32;;;;;;;1.50;1.40;;;;;;;11.71;50.20;95358.78;5029167;28;20320;-84
2022/11/09 06:02:00;;;;;;;3.60;1.23;;;;;;;11.79;50.50;95354.47;5022728;28;20202;-83
2022/11/09 06:04:27;;;;;;;2.03;1.30;;;;;;;11.80;50.53;95356.88;5017400;28;20257;-83
2022/11/09 06:06:54;;;;;;;1.23;1.10;;;;;;;11.84;50.58;95359.88;5016541;28;20203;-84
2022/11/09 06:09:20;;;;;;;1.87;1.40;;;;;;;11.86;50.91;95370.81;5027926;28;20222;-84
2022/11/09 06:11:47;;;;;;;2.30;1.30;;;;;;;11.86;50.92;95371.59;5032909;28;20202;-83
2022/11/09 06:17:32;;;;;;;1.30;1.20;;;;;;;11.84;52.22;95380.50;4994932;28;20566;-83
2022/11/09 06:19:59;;;;;;;3.33;1.20;;;;;;;11.81;52.33;95386.84;5012725;28;20303;-84
2022/11/09 06:22:26;;;;;;;3.90;1.80;;;;;;;11.74;53.55;95404.81;5013486;28;20199;-84
2022/11/09 06:24:53;;;;;;;1.63;1.23;;;;;;;11.67;52.95;95405.78;5013371;28;20302;-83
2022/11/09 06:27:19;;;;;;;5.50;2.00;;;;;;;11.53;56.74;95412.63;5013140;28;20207;-82
2022/11/09 06:29:46;;;;;;;6.60;1.60;;;;;;;11.53;53.58;95419.56;5012749;28;20225;-84
2022/11/09 06:32:12;;;;;;;1.80;1.40;;;;;;;11.47;53.25;95418.50;5015053;28;20204;-84
2022/11/09 06:34:39;;;;;;;1.90;1.33;;;;;;;11.40;54.82;95431.34;5025560;28;20221;-84
2022/11/09 06:37:11;;;;;;;2.20;1.37;;;;;;;11.43;53.40;95448.22;5025981;28;20205;-84
2022/11/09 06:39:37;;;;;;;12.00;9.20;;;;;;;11.41;53.96;95450.97;5034988;28;20234;-84
2022/11/09 06:42:04;;;;;;;7.77;6.43;;;;;;;11.48;53.83;95453.63;5037159;28;20202;-84
2022/11/09 06:44:30;;;;;;;3.30;2.37;;;;;;;11.65;53.93;95456.72;5037439;28;20226;-85
2022/11/09 06:47:00;;;;;;;2.03;1.83;;;;;;;11.86;53.58;95464.47;5038906;28;20198;-84
2022/11/09 06:49:26;;;;;;;3.43;1.93;;;;;;;12.10;53.37;95476.97;5038558;28;20226;-84
2022/11/09 06:51:53;;;;;;;2.27;1.90;;;;;;;12.35;53.12;95476.50;5032287;28;20203;-84
2022/11/09 06:54:26;;;;;;;2.30;2.10;;;;;;;12.55;52.42;95489.53;5024271;28;20209;-82
2022/11/09 06:56:54;;;;;;;2.13;1.90;;;;;;;12.84;51.84;95504.00;5027240;28;20269;-84
2022/11/09 06:59:20;;;;;;;4.07;2.00;;;;;;;12.94;51.34;95507.78;5024373;28;20241;-84
2022/11/09 07:01:47;;;;;;;3.77;2.00;;;;;;;12.85;51.66;95513.34;5025693;28;20195;-85
2022/11/09 07:04:14;;;;;;;3.13;2.17;;;;;;;12.59;51.77;95509.63;5020823;28;20202;-85
2022/11/09 07:06:40;;;;;;;2.60;1.90;;;;;;;12.40;52.55;95511.09;5035183;28;20210;-84
2022/11/09 07:09:07;;;;;;;3.57;1.93;;;;;;;12.21;52.68;95514.34;5031107;28;20590;-83
2022/11/09 07:11:35;;;;;;;3.07;2.00;;;;;;;12.17;52.79;95514.91;5035278;28;20208;-85
2022/11/09 07:14:01;;;;;;;28.87;22.00;;;;;;;12.13;53.29;95513.69;5035297;28;20566;-84
2022/11/09 07:16:28;;;;;;;9.93;8.40;;;;;;;12.05;53.55;95517.22;5035083;28;20194;-82
2022/11/09 07:18:55;;;;;;;3.63;2.70;;;;;;;12.02;53.36;95515.00;5032281;28;20230;-84
2022/11/09 07:21:21;;;;;;;2.27;1.90;;;;;;;11.97;53.36;95515.56;5036043;28;20224;-84
2022/11/09 07:23:49;;;;;;;6.10;1.80;;;;;;;11.95;53.16;95514.13;5035798;28;20198;-84
2022/11/09 07:26:16;;;;;;;5.03;1.70;;;;;;;11.96;53.07;95516.53;5035596;28;20221;-83
2022/11/09 07:28:44;;;;;;;3.63;1.90;;;;;;;11.95;53.69;95514.94;5034805;28;20187;-83
2022/11/09 07:31:13;;;;;;;6.33;1.80;;;;;;;11.98;53.39;95511.19;5033010;28;20856;-85
2022/11/09 07:33:39;;;;;;;4.53;1.87;;;;;;;11.97;53.66;95507.00;5026015;28;20204;-85
2022/11/09 07:36:06;;;;;;;1.90;1.70;;;;;;;11.96;53.13;95503.63;5028330;28;20205;-84
2022/11/09 07:38:33;;;;;;;3.40;1.90;;;;;;;11.96;53.58;95503.63;5024658;28;20274;-84
2022/11/09 07:41:00;;;;;;;6.80;1.80;;;;;;;12.08;53.00;95503.94;5033874;28;20210;-84
2022/11/09 07:43:27;;;;;;;2.83;1.93;;;;;;;12.13;52.72;95498.19;5033407;28;20255;-83
2022/11/09 07:45:55;;;;;;;2.50;1.73;;;;;;;12.22;52.61;95494.50;5035811;28;20206;-82
2022/11/09 07:48:21;;;;;;;2.00;1.60;;;;;;;12.25;52.51;95501.88;5034488;28;20550;-84
2022/11/09 07:50:48;;;;;;;4.37;2.20;;;;;;;12.34;52.73;95504.09;5031525;28;20748;-83
2022/11/09 07:53:15;;;;;;;5.20;2.20;;;;;;;12.43;52.24;95495.22;5033708;28;20228;-85
2022/11/09 07:55:43;;;;;;;3.67;1.73;;;;;;;12.49;52.17;95496.28;5036200;28;20301;-84
2022/11/09 07:58:12;;;;;;;5.00;1.87;;;;;;;12.55;52.03;95500.66;5035121;28;20252;-84
2022/11/09 08:00:39;;;;;;;2.47;1.70;;;;;;;12.65;51.30;95498.53;5034030;28;20227;-84
2022/11/09 08:03:08;;;;;;;2.97;1.90;;;;;;;12.77;51.42;95506.53;5033648;28;20206;-85
2022/11/09 08:05:35;;;;;;;3.30;2.07;;;;;;;12.87;51.38;95501.03;5036410;28;20213;-83
2022/11/09 08:08:03;;;;;;;4.60;2.10;;;;;;;13.06;50.93;95502.88;5037695;28;20198;-84
2022/11/09 08:10:32;;;;;;;4.70;2.10;;;;;;;13.22;50.86;95514.69;5032425;28;20227;-83
2022/11/09 08:13:00;;;;;;;10.37;2.13;;;;;;;13.29;50.47;95510.31;5015294;28;20202;-84
2022/11/09 08:15:27;;;;;;;3.33;3.03;;;;;;;13.31;50.13;95508.34;5015285;28;20206;-83
2022/11/09 08:17:54;;;;;;;6.67;2.80;;;;;;;13.29;50.47;95505.94;5015754;28;20210;-86
2022/11/09 08:20:22;;;;;;;3.93;2.50;;;;;;;13.30;50.28;95511.91;5015202;28;20226;-84
2022/11/09 08:22:48;;;;;;;3.27;2.10;;;;;;;13.28;50.64;95514.69;5015186;28;20203;-83
2022/11/09 08:25:15;;;;;;;5.33;2.27;;;;;;;13.31;50.53;95516.09;5019299;28;20198;-84
2022/11/09 08:27:42;;;;;;;2.77;1.80;;;;;;;13.30;50.46;95515.31;5027691;28;20203;-84
2022/11/09 08:30:12;;;;;;;6.40;2.33;;;;;;;13.34;50.19;95513.94;5034683;28;20222;-83
2022/11/09 08:32:39;;;;;;;5.77;2.10;;;;;;;13.44;50.27;95521.34;5034791;28;20198;-83
2022/11/09 08:35:06;;;;;;;5.27;1.97;;;;;;;13.57;50.37;95520.56;5036232;28;20208;-85
2022/11/09 08:37:35;;;;;;;3.77;2.07;;;;;;;13.60;50.10;95515.78;5035526;28;20205;-85
2022/11/09 08:40:01;;;;;;;5.47;2.10;;;;;;;13.64;50.07;95524.75;5020290;28;20227;-84
2022/11/09 08:42:27;;;;;;;2.50;2.10;;;;;;;13.65;49.25;95525.56;5035017;28;20205;-84
2022/11/09 08:44:54;;;;;;;4.27;2.00;;;;;;;13.68;49.36;95522.56;5034668;28;20202;-83
2022/11/09 08:47:20;;;;;;;2.03;1.87;;;;;;;13.70;49.28;95530.91;5035206;28;20229;-84
2022/11/09 08:49:47;;;;;;;4.20;2.00;;;;;;;13.72;49.35;95531.50;5034587;28;20637;-84
2022/11/09 08:52:18;;;;;;;2.10;1.90;;;;;;;13.72;49.43;95531.50;5034485;28;20210;-84
2022/11/09 08:54:46;;;;;;;2.13;1.87;;;;;;;13.73;49.59;95546.06;5035505;28;20677;-84
2022/11/09 08:57:23;;;;;;;3.30;1.87;;;;;;;13.71;49.47;95537.69;5035671;28;20198;-83
2022/11/09 08:59:50;;;;;;;2.57;1.80;;;;;;;13.75;49.67;95544.88;5034989;28;20419;-84
2022/11/09 09:02:19;;;;;;;3.10;1.90;;;;;;;13.70;49.69;95546.44;5034419;28;20202;-83
2022/11/09 09:04:45;;;;;;;1.93;1.73;;;;;;;13.71;49.69;95548.03;5015211;28;20249;-84
2022/11/09 09:07:12;;;;;;;2.67;2.00;;;;;;;13.65;49.45;95535.91;5016534;28;20221;-83
2022/11/09 09:09:39;;;;;;;3.20;1.60;;;;;;;13.68;49.66;95541.47;5014867;28;20229;-83
2022/11/09 09:12:08;;;;;;;4.37;2.67;;;;;;;13.74;49.59;95537.28;5014469;28;20199;-84
2022/11/09 09:14:35;;;;;;;5.97;3.63;;;;;;;13.76;49.97;95532.72;5015047;28;20199;-83
2022/11/09 09:17:02;;;;;;;3.47;1.80;;;;;;;13.78;50.24;95538.50;5015744;28;20191;-84
2022/11/09 09:19:29;;;;;;;4.30;1.97;;;;;;;13.85;50.45;95544.50;5015814;28;20237;-84
2022/11/09 09:21:55;;;;;;;3.57;1.80;;;;;;;13.90;50.37;95554.22;5022100;28;20206;-84
2022/11/09 09:24:22;;;;;;;3.40;1.90;;;;;;;13.95;50.72;95563.00;5027211;28;20738;-84
2022/11/09 09:26:48;;;;;;;1.95;1.40;;;;;;;14.04;50.67;95563.63;5036261;28;20198;-83
2022/11/09 09:29:16;;;;;;;2.30;1.50;;;;;;;14.08;50.95;95550.06;5033992;28;20198;-84
2022/11/09 09:31:43;;;;;;;1.90;1.30;;;;;;;14.11;50.74;95554.84;5036470;28;20704;-83
2022/11/09 09:34:11;;;;;;;2.30;1.50;;;;;;;14.17;50.99;95555.84;5035838;28;20212;-84
2022/11/09 09:36:38;;;;;;;3.23;2.13;;;;;;;14.15;50.99;95552.66;5034414;28;20293;-84
2022/11/09 09:39:04;;;;;;;4.07;1.73;;;;;;;14.22;51.24;95555.25;5034750;28;20205;-84
2022/11/09 09:41:37;;;;;;;4.07;1.80;;;;;;;14.29;51.41;95549.06;5024860;28;20202;-84
2022/11/09 09:44:19;;;;;;;4.33;1.67;;;;;;;14.34;51.35;95556.25;5021180;28;20206;-84
2022/11/09 09:46:49;;;;;;;2.90;1.70;;;;;;;14.38;51.38;95547.88;5036056;28;20205;-83
2022/11/09 09:49:20;;;;;;;4.30;1.97;;;;;;;14.42;51.47;95551.69;5035887;28;20182;-84
2022/11/09 09:51:53;;;;;;;5.40;2.33;;;;;;;14.42;52.40;95551.69;5020304;28;20393;-85
2022/11/09 09:54:23;;;;;;;2.45;1.90;;;;;;;14.47;51.85;95551.88;5016156;28;20210;-84
2022/11/09 09:56:51;;;;;;;3.70;1.30;;;;;;;14.51;51.54;95557.47;5016059;28;20654;-83
2022/11/09 09:59:26;;;;;;;2.67;1.40;;;;;;;14.58;51.95;95545.31;5019883;28;20221;-84
2022/11/09 10:01:56;;;;;;;1.90;1.40;;;;;;;14.65;52.04;95543.47;5033890;28;20202;-84
2022/11/09 10:04:29;;;;;;;2.58;1.70;;;;;;;14.77;52.37;95552.25;5035719;28;20206;-85
2022/11/09 10:07:05;;;;;;;2.05;1.60;;;;;;;14.87;52.59;95551.81;5035752;28;20321;-84
2022/11/09 10:09:43;;;;;;;1.40;1.30;;;;;;;14.90;52.39;95556.59;5033671;28;20222;-84
2022/11/09 10:12:19;;;;;;;4.07;1.52;;;;;;;14.98;52.27;95545.19;5035366;28;20193;-84
2022/11/09 10:15:02;;;;;;;1.40;1.20;;;;;;;14.97;51.78;95551.38;5038089;28;20399;-84
2022/11/09 10:17:38;;;;;;;1.30;1.20;;;;;;;15.00;51.92;95559.56;5039318;28;20232;-84
2022/11/09 10:20:30;;;;;;;1.58;1.30;;;;;;;14.97;51.78;95547.00;5029956;28;20229;-87
2022/11/09 10:23:11;;;;;;;1.40;1.30;;;;;;;14.99;52.19;95551.97;5038623;28;20202;-85
2022/11/09 10:25:38;;;;;;;2.05;1.40;;;;;;;15.02;51.74;95539.38;5038445;28;20195;-84
2022/11/09 10:28:11;;;;;;;1.33;1.23;;;;;;;15.02;52.20;95534.19;5036773;28;20202;-84
2022/11/09 10:30:40;;;;;;;1.65;1.30;;;;;;;14.97;52.35;95531.44;5037193;28;20268;-85
2022/11/09 10:33:17;;;;;;;1.60;1.48;;;;;;;15.01;52.70;95540.38;5038638;28;20202;-84
2022/11/09 10:35:45;;;;;;;3.80;1.85;;;;;;;15.04;52.89;95527.00;5039069;28;20641;-84
2022/11/09 10:38:28;;;;;;;3.42;1.45;;;;;;;15.10;53.37;95525.41;5038332;28;20677;-84
2022/11/09 10:41:00;;;;;;;2.80;1.67;;;;;;;15.14;53.19;95524.78;5038414;28;20230;-83
2022/11/09 10:43:27;;;;;;;3.88;1.67;;;;;;;15.37;52.77;95519.09;5038365;28;20214;-83
2022/11/09 10:46:03;;;;;;;4.22;3.10;;;;;;;15.66;51.24;95517.75;5034668;28;20213;-83
2022/11/09 10:48:32;;;;;;;2.22;1.83;;;;;;;16.00;51.24;95511.31;5032805;28;20557;-84
2022/11/09 10:50:59;;;;;;;2.28;1.80;;;;;;;16.18;50.35;95500.97;5032607;28;20214;-83
2022/11/09 10:53:27;;;;;;;2.03;1.58;;;;;;;16.37;49.54;95504.41;5028780;28;20700;-83
2022/11/09 10:55:55;;;;;;;3.28;1.75;;;;;;;16.32;48.51;95506.88;5032717;28;20216;-83
2022/11/09 10:58:30;;;;;;;2.83;1.70;;;;;;;16.34;48.54;95502.25;5032530;28;20202;-83
2022/11/09 11:01:05;;;;;;;2.17;1.65;;;;;;;16.41;48.23;95495.19;5032293;28;20269;-83
2022/11/09 11:03:37;;;;;;;2.28;1.83;;;;;;;16.45;48.77;95496.34;5033794;28;20177;-83
2022/11/09 11:06:05;;;;;;;2.67;1.38;;;;;;;16.52;48.34;95506.69;5035425;28;20288;-83
2022/11/09 11:08:39;;;;;;;1.67;1.42;;;;;;;16.54;48.34;95495.06;5032246;28;20205;-83
2022/11/09 11:11:26;;;;;;;1.80;1.50;;;;;;;16.70;47.89;95492.94;5032354;28;20225;-83
2022/11/09 11:14:11;;;;;;;3.08;1.30;;;;;;;16.79;48.10;95489.03;5032626;28;20277;-83
2022/11/09 11:16:40;;;;;;;1.98;1.60;;;;;;;17.04;48.55;95483.75;5026209;28;20285;-84
2022/11/09 11:19:26;;;;;;;2.63;1.42;;;;;;;17.26;47.40;95469.25;5028911;28;20199;-84
2022/11/09 11:22:18;;;;;;;3.22;1.45;;;;;;;17.47;47.21;95463.56;5012771;28;20187;-84
2022/11/09 11:24:55;;;;;;;3.10;1.40;;;;;;;17.57;46.97;95474.22;5012539;28;20218;-84
2022/11/09 11:27:26;;;;;;;1.90;1.30;;;;;;;17.61;46.70;95477.97;5013639;28;20195;-85
2022/11/09 11:29:59;;;;;;;3.17;1.65;;;;;;;17.63;47.06;95474.34;5023465;28;20964;-85
2022/11/09 11:32:27;;;;;;;3.38;2.08;;;;;;;17.65;47.44;95467.13;5033919;28;20190;-84
2022/11/09 11:34:54;;;;;;;1.58;1.27;;;;;;;17.58;47.60;95475.00;5033197;28;20210;-84
2022/11/09 11:37:34;;;;;;;1.63;1.30;;;;;;;17.49;48.00;95460.72;5033372;28;20213;-84
2022/11/09 11:40:03;;;;;;;1.38;1.27;;;;;;;17.47;48.54;95465.38;5034037;28;20639;-84
2022/11/09 11:42:49;;;;;;;1.75;1.50;;;;;;;17.48;48.73;95470.34;5026191;28;20210;-85
2022/11/09 11:45:31;;;;;;;1.52;1.40;;;;;;;17.47;48.73;95467.97;5011775;28;20191;-84